createdAt,value
2019-02-27T00:01:27.312Z,3.27
2019-02-27T00:03:31.126Z,3.47
2019-02-27T00:05:35.333Z,3.77
2019-02-27T00:07:39.143Z,3.25
2019-02-27T00:09:43.243Z,3.83
2019-02-27T00:11:47.336Z,3.35
2019-02-27T00:13:51.457Z,3.77
2019-02-27T00:15:57.369Z,3.62
2019-02-27T00:18:00.792Z,3.50
2019-02-27T00:20:06.664Z,3.47
2019-02-27T00:22:10.861Z,3.17
2019-02-27T00:24:14.982Z,3.20
2019-02-27T00:26:19.183Z,4.50
2019-02-27T00:28:23.951Z,3.40
2019-02-27T00:30:28.128Z,3.42
2019-02-27T00:32:32.232Z,3.42
2019-02-27T00:34:36.364Z,3.52
2019-02-27T00:36:44.848Z,3.40
2019-02-27T00:38:46.314Z,3.52
2019-02-27T00:40:50.416Z,3.83
2019-02-27T00:42:54.996Z,3.67
2019-02-27T00:44:58.816Z,3.87
2019-02-27T00:47:03.001Z,3.52
2019-02-27T00:49:06.807Z,3.92
2019-02-27T00:51:11.977Z,2.83
2019-02-27T00:53:17.028Z,2.85
2019-02-27T00:55:21.138Z,3.20
2019-02-27T00:57:25.549Z,3.40
2019-02-27T00:59:32.881Z,2.95
2019-02-27T01:01:35.635Z,2.92
2019-02-27T01:03:39.438Z,3.22
2019-02-27T01:05:43.632Z,3.00
2019-02-27T01:07:47.754Z,3.15
2019-02-27T01:09:51.958Z,2.87
2019-02-27T01:11:56.066Z,3.83
2019-02-27T01:14:03.919Z,3.12
2019-02-27T01:16:05.776Z,3.42
2019-02-27T01:18:09.950Z,2.98
2019-02-27T01:20:15.902Z,3.33
2019-02-27T01:22:20.085Z,3.20
2019-02-27T01:24:24.720Z,3.02
2019-02-27T01:26:30.794Z,3.35
2019-02-27T01:28:34.488Z,3.15
2019-02-27T01:30:38.592Z,3.33
2019-02-27T01:32:42.584Z,3.22
2019-02-27T01:34:46.706Z,3.72
2019-02-27T01:36:54.881Z,3.47
2019-02-27T01:38:58.404Z,3.80
2019-02-27T01:41:02.514Z,3.50
2019-02-27T01:43:06.510Z,3.98
2019-02-27T01:45:13.557Z,3.27
2019-02-27T01:47:19.378Z,2.90
2019-02-27T01:49:23.559Z,3.72
2019-02-27T01:51:28.345Z,4.17
2019-02-27T01:53:32.678Z,4.33
2019-02-27T01:55:36.912Z,4.80
2019-02-27T01:57:40.724Z,4.25
2019-02-27T01:59:44.938Z,4.72
2019-02-27T02:01:48.744Z,4.58
2019-02-27T02:03:52.855Z,4.08
2019-02-27T02:05:58.765Z,3.40
2019-02-27T02:08:02.700Z,3.20
2019-02-27T02:10:10.721Z,3.20
2019-02-27T02:12:17.898Z,3.52
2019-02-27T02:14:29.240Z,3.20
2019-02-27T02:16:36.448Z,4.05
2019-02-27T02:18:52.096Z,3.72
2019-02-27T02:21:20.196Z,3.37
2019-02-27T02:23:49.646Z,3.02
2019-02-27T02:26:15.118Z,3.50
2019-02-27T02:28:28.143Z,4.03
2019-02-27T02:30:53.143Z,3.75
2019-02-27T02:33:12.089Z,3.47
2019-02-27T02:35:33.930Z,3.85
2019-02-27T02:38:01.660Z,4.05
2019-02-27T02:40:30.850Z,3.72
2019-02-27T02:43:05.723Z,3.58
2019-02-27T02:45:22.031Z,3.08
2019-02-27T02:47:35.032Z,3.30
2019-02-27T02:50:05.069Z,3.85
2019-02-27T02:52:26.960Z,3.87
2019-02-27T02:54:37.823Z,3.40
2019-02-27T02:56:45.330Z,2.90
2019-02-27T02:59:11.527Z,3.40
2019-02-27T03:01:24.700Z,3.40
2019-02-27T03:03:37.035Z,3.40
2019-02-27T03:06:12.355Z,3.10
2019-02-27T03:08:22.499Z,3.52
2019-02-27T03:10:44.625Z,3.70
2019-02-27T03:13:05.835Z,4.50
2019-02-27T03:15:09.026Z,4.17
2019-02-27T03:17:40.695Z,5.35
2019-02-27T03:19:53.491Z,5.87
2019-02-27T03:22:17.425Z,5.78
2019-02-27T03:24:46.947Z,7.20
2019-02-27T03:26:57.021Z,6.10
2019-02-27T03:29:20.689Z,6.15
2019-02-27T03:31:30.217Z,5.87
2019-02-27T03:34:08.867Z,6.45
2019-02-27T03:36:15.239Z,6.40
2019-02-27T03:38:43.795Z,6.75
2019-02-27T03:41:02.534Z,6.28
2019-02-27T03:43:36.755Z,6.28
2019-02-27T03:45:52.750Z,7.35
2019-02-27T03:48:31.777Z,6.72
2019-02-27T03:50:49.945Z,5.12
2019-02-27T03:52:59.550Z,5.25
2019-02-27T03:55:06.747Z,4.80
2019-02-27T03:57:36.255Z,4.62
2019-02-27T04:00:04.717Z,4.33
2019-02-27T04:02:26.141Z,3.90
2019-02-27T04:04:54.306Z,4.97
2019-02-27T04:07:21.401Z,4.15
2019-02-27T04:09:25.676Z,4.30
2019-02-27T04:11:29.509Z,4.47
2019-02-27T04:13:33.310Z,4.75
2019-02-27T04:15:37.203Z,4.75
2019-02-27T04:17:40.191Z,4.83
2019-02-27T04:19:44.596Z,5.17
2019-02-27T04:21:48.822Z,5.67
2019-02-27T04:23:52.631Z,4.92
2019-02-27T04:25:56.713Z,5.10
2019-02-27T04:28:00.571Z,5.65
2019-02-27T04:30:08.330Z,5.58
2019-02-27T04:32:13.290Z,5.37
2019-02-27T04:34:19.094Z,5.62
2019-02-27T04:36:23.137Z,5.03
2019-02-27T04:38:28.163Z,5.95
2019-02-27T04:40:32.034Z,5.15
2019-02-27T04:42:35.841Z,6.25
2019-02-27T04:44:39.701Z,6.00
2019-02-27T04:46:43.485Z,7.28
2019-02-27T04:48:47.659Z,7.42
2019-02-27T04:50:51.879Z,8.25
2019-02-27T04:52:57.593Z,6.67
2019-02-27T04:55:01.666Z,6.50
2019-02-27T04:57:05.741Z,6.22
2019-02-27T04:59:09.549Z,6.08
2019-02-27T05:01:13.683Z,5.58
2019-02-27T05:03:17.889Z,5.83
2019-02-27T05:05:21.704Z,7.05
2019-02-27T05:07:25.895Z,6.20
2019-02-27T05:09:33.894Z,6.58
2019-02-27T05:11:37.391Z,6.65
2019-02-27T05:13:41.209Z,7.58
2019-02-27T05:15:45.400Z,7.35
2019-02-27T05:17:49.515Z,6.78
2019-02-27T05:19:53.629Z,7.08
2019-02-27T05:21:57.956Z,6.22
2019-02-27T05:24:01.775Z,6.28
2019-02-27T05:26:05.951Z,6.35
2019-02-27T05:28:10.053Z,6.47
2019-02-27T05:30:14.281Z,6.37
2019-02-27T05:32:18.481Z,7.03
2019-02-27T05:34:22.311Z,6.90
2019-02-27T05:36:28.962Z,6.30
2019-02-27T05:38:32.345Z,6.92
2019-02-27T05:40:36.579Z,5.90
2019-02-27T05:42:40.779Z,6.55
2019-02-27T05:44:44.993Z,7.33
2019-02-27T05:46:49.102Z,6.95
2019-02-27T05:48:53.924Z,7.25
2019-02-27T05:50:58.139Z,6.28
2019-02-27T05:53:02.244Z,7.12
2019-02-27T05:55:08.857Z,7.42
2019-02-27T05:57:14.203Z,6.78
2019-02-27T05:59:17.933Z,6.58
2019-02-27T06:01:22.060Z,6.87
2019-02-27T06:03:28.015Z,6.72
2019-02-27T06:05:33.659Z,6.33
2019-02-27T06:07:39.739Z,6.65
2019-02-27T06:09:43.825Z,6.85
2019-02-27T06:11:48.673Z,7.30
2019-02-27T06:13:52.865Z,6.00
2019-02-27T06:15:56.995Z,6.53
2019-02-27T06:18:00.829Z,6.00
2019-02-27T06:20:09.395Z,6.15
2019-02-27T06:22:13.529Z,6.37
2019-02-27T06:24:17.721Z,5.90
2019-02-27T06:26:21.777Z,5.62
2019-02-27T06:28:25.956Z,6.62
2019-02-27T06:30:30.661Z,6.10
2019-02-27T06:32:35.794Z,7.37
2019-02-27T06:34:39.597Z,6.55
2019-02-27T06:36:43.433Z,6.85
2019-02-27T06:38:47.245Z,5.72
2019-02-27T06:40:51.533Z,6.37
2019-02-27T06:42:56.861Z,7.10
2019-02-27T06:45:00.743Z,6.80
2019-02-27T06:47:06.976Z,6.50
2019-02-27T06:49:10.419Z,6.50
2019-02-27T06:51:14.538Z,6.08
2019-02-27T06:53:18.651Z,6.45
2019-02-27T06:55:25.475Z,6.70
2019-02-27T06:57:28.617Z,5.90
2019-02-27T06:59:32.821Z,6.40
2019-02-27T07:01:36.636Z,5.62
2019-02-27T07:03:40.938Z,5.87
2019-02-27T07:05:45.572Z,6.90
2019-02-27T07:07:50.900Z,6.45
2019-02-27T07:09:55.012Z,6.33
2019-02-27T07:11:59.094Z,6.35
2019-02-27T07:14:03.232Z,7.37
2019-02-27T07:16:07.340Z,5.80
2019-02-27T07:18:12.550Z,6.40
2019-02-27T07:20:17.018Z,6.03
2019-02-27T07:22:21.198Z,6.10
2019-02-27T07:24:25.331Z,6.90
2019-02-27T07:26:29.179Z,6.22
2019-02-27T07:28:33.340Z,7.17
2019-02-27T07:30:39.864Z,6.78
2019-02-27T07:32:42.981Z,6.22
2019-02-27T07:34:49.738Z,7.47
2019-02-27T07:36:54.172Z,6.47
2019-02-27T07:38:58.376Z,6.37
2019-02-27T07:41:02.181Z,6.87
2019-02-27T07:43:06.486Z,7.55
2019-02-27T07:45:12.976Z,6.70
2019-02-27T07:47:17.098Z,6.75
2019-02-27T07:49:21.202Z,6.62
2019-02-27T07:51:25.302Z,7.05
2019-02-27T07:53:29.141Z,7.30
2019-02-27T07:55:33.313Z,8.15
2019-02-27T07:57:37.432Z,7.22
2019-02-27T07:59:41.851Z,5.85
2019-02-27T08:01:49.536Z,5.90
2019-02-27T08:03:53.757Z,7.47
2019-02-27T08:05:59.820Z,6.45
2019-02-27T08:08:03.538Z,6.85
2019-02-27T08:10:16.136Z,6.53
2019-02-27T08:12:20.710Z,5.97
2019-02-27T08:14:24.854Z,7.20
2019-02-27T08:16:28.997Z,5.67
2019-02-27T08:18:36.689Z,7.00
2019-02-27T08:20:39.035Z,6.80
2019-02-27T08:22:43.136Z,8.90
2019-02-27T08:24:50.005Z,9.90
2019-02-27T08:26:54.219Z,15.25
2019-02-27T08:29:00.776Z,15.78
2019-02-27T08:31:04.197Z,10.25
2019-02-27T08:33:09.101Z,7.92
2019-02-27T08:35:13.321Z,6.72
2019-02-27T08:37:17.428Z,6.12
2019-02-27T08:39:21.567Z,5.65
2019-02-27T08:41:25.395Z,5.72
2019-02-27T08:43:30.906Z,6.25
2019-02-27T08:45:34.996Z,6.83
2019-02-27T08:47:40.879Z,7.37
2019-02-27T08:49:44.659Z,6.70
2019-02-27T08:51:48.774Z,6.22
2019-02-27T08:53:52.979Z,6.78
2019-02-27T08:55:57.107Z,6.78
2019-02-27T08:58:01.312Z,7.22
2019-02-27T09:00:08.791Z,6.15
2019-02-27T09:02:15.842Z,5.47
2019-02-27T09:04:20.007Z,6.25
2019-02-27T09:06:27.373Z,5.90
2019-02-27T09:08:31.434Z,6.50
2019-02-27T09:10:35.795Z,6.05
2019-02-27T09:12:40.297Z,6.45
2019-02-27T09:14:44.530Z,6.00
2019-02-27T09:16:48.633Z,5.67
2019-02-27T09:18:52.741Z,5.45
2019-02-27T09:20:56.868Z,5.58
2019-02-27T09:23:01.078Z,5.75
2019-02-27T09:25:07.014Z,6.58
2019-02-27T09:27:12.776Z,5.70
2019-02-27T09:29:18.723Z,6.42
2019-02-27T09:31:23.544Z,5.67
2019-02-27T09:33:27.359Z,5.92
2019-02-27T09:35:33.348Z,5.08
2019-02-27T09:37:37.117Z,5.62
2019-02-27T09:39:40.920Z,5.65
2019-02-27T09:41:46.989Z,4.90
2019-02-27T09:43:50.552Z,4.78
2019-02-27T09:45:55.106Z,5.70
2019-02-27T09:48:00.540Z,5.20
2019-02-27T09:50:06.392Z,5.92
2019-02-27T09:52:10.600Z,5.50
2019-02-27T09:54:14.699Z,5.72
2019-02-27T09:56:18.809Z,5.58
2019-02-27T09:58:22.923Z,6.08
2019-02-27T10:00:38.272Z,6.03
2019-02-27T10:02:43.194Z,6.60
2019-02-27T10:04:47.940Z,6.00
2019-02-27T10:06:52.078Z,6.33
2019-02-27T10:08:56.468Z,6.33
2019-02-27T10:11:01.205Z,6.43
2019-02-27T10:13:04.804Z,6.10
2019-02-27T10:15:08.786Z,6.50
2019-02-27T10:17:12.612Z,5.60
2019-02-27T10:19:17.139Z,5.87
2019-02-27T10:21:21.032Z,6.23
2019-02-27T10:23:24.542Z,5.53
2019-02-27T10:25:28.438Z,6.07
2019-02-27T10:27:32.337Z,6.07
2019-02-27T10:29:36.174Z,5.33
2019-02-27T10:31:40.052Z,5.80
2019-02-27T10:33:46.202Z,5.97
2019-02-27T10:35:50.119Z,6.20
2019-02-27T10:37:54.502Z,5.60
2019-02-27T10:39:58.336Z,5.33
2019-02-27T10:42:02.354Z,5.73
2019-02-27T10:44:06.256Z,5.70
2019-02-27T10:46:10.155Z,6.20
2019-02-27T10:48:14.065Z,7.07
2019-02-27T10:50:17.868Z,7.47
2019-02-27T10:52:25.059Z,7.10
2019-02-27T10:54:28.676Z,6.83
2019-02-27T10:56:32.552Z,7.53
2019-02-27T10:58:36.077Z,7.93
2019-02-27T11:00:39.966Z,7.90
2019-02-27T11:02:45.195Z,7.47
2019-02-27T11:04:50.076Z,8.20
2019-02-27T11:06:53.809Z,7.67
2019-02-27T11:08:57.622Z,7.53
2019-02-27T11:11:01.558Z,7.63
2019-02-27T11:13:06.730Z,7.40
2019-02-27T11:15:13.954Z,7.20
2019-02-27T11:17:17.468Z,7.80
2019-02-27T11:19:21.477Z,7.27
2019-02-27T11:21:25.366Z,6.77
2019-02-27T11:23:29.163Z,6.80
2019-02-27T11:25:33.171Z,6.33
2019-02-27T11:27:38.939Z,7.20
2019-02-27T11:29:42.629Z,6.60
2019-02-27T11:31:50.161Z,7.30
2019-02-27T11:33:55.649Z,7.23
2019-02-27T11:35:59.554Z,7.37
2019-02-27T11:38:03.371Z,6.30
2019-02-27T11:40:15.745Z,6.60
2019-02-27T11:42:20.550Z,5.87
2019-02-27T11:44:24.397Z,6.27
2019-02-27T11:46:28.304Z,5.90
2019-02-27T11:48:32.095Z,5.60
2019-02-27T11:50:36.481Z,5.70
2019-02-27T11:52:48.601Z,5.67
2019-02-27T11:54:46.573Z,5.60
2019-02-27T11:56:51.483Z,5.60
2019-02-27T11:58:55.721Z,5.70
2019-02-27T12:00:59.526Z,5.47
2019-02-27T12:03:03.334Z,4.43
2019-02-27T12:05:10.183Z,4.30
2019-02-27T12:07:17.230Z,4.97
2019-02-27T12:09:19.799Z,4.40
2019-02-27T12:11:25.687Z,4.40
2019-02-27T12:13:29.548Z,4.67
2019-02-27T12:15:33.531Z,4.90
2019-02-27T12:17:37.049Z,4.10
2019-02-27T12:19:44.403Z,4.60
2019-02-27T12:21:46.458Z,4.90
2019-02-27T12:23:50.383Z,4.53
2019-02-27T12:25:54.267Z,5.40
2019-02-27T12:27:58.084Z,5.50
2019-02-27T12:30:03.024Z,4.77
2019-02-27T12:32:07.728Z,5.27
2019-02-27T12:34:11.659Z,4.43
2019-02-27T12:36:16.066Z,5.23
2019-02-27T12:38:20.774Z,4.10
2019-02-27T12:40:25.321Z,4.20
2019-02-27T12:42:37.137Z,5.73
2019-02-27T12:44:34.870Z,5.00
2019-02-27T12:46:38.441Z,4.63
2019-02-27T12:48:46.064Z,4.10
2019-02-27T12:50:47.487Z,3.50
2019-02-27T12:52:51.396Z,4.00
2019-02-27T12:54:59.174Z,3.97
2019-02-27T12:57:02.280Z,3.47
2019-02-27T12:59:05.811Z,3.17
2019-02-27T13:01:11.003Z,3.20
2019-02-27T13:03:15.329Z,2.67
2019-02-27T13:05:20.648Z,2.60
2019-02-27T13:07:24.216Z,2.50
2019-02-27T13:09:27.712Z,2.70
2019-02-27T13:11:31.262Z,2.87
2019-02-27T13:13:35.121Z,2.67
2019-02-27T13:15:41.099Z,2.90
2019-02-27T13:17:44.511Z,3.00
2019-02-27T13:19:48.034Z,3.30
2019-02-27T13:21:55.806Z,3.00
2019-02-27T13:23:59.383Z,2.77
2019-02-27T13:26:02.931Z,2.10
2019-02-27T13:28:06.519Z,2.90
2019-02-27T13:30:16.027Z,2.60
2019-02-27T13:32:19.601Z,3.07
2019-02-27T13:34:23.423Z,3.43
2019-02-27T13:36:26.960Z,2.93
2019-02-27T13:38:30.816Z,3.00
2019-02-27T13:40:36.361Z,3.23
2019-02-27T13:42:42.940Z,3.90
2019-02-27T13:44:46.845Z,3.53
2019-02-27T13:46:50.745Z,3.13
2019-02-27T13:48:54.266Z,3.10
2019-02-27T13:50:59.644Z,2.80
2019-02-27T13:53:03.788Z,3.10
2019-02-27T13:55:16.101Z,3.20
2019-02-27T13:57:24.959Z,2.73
2019-02-27T13:59:25.547Z,3.00
2019-02-27T14:01:29.388Z,2.30
2019-02-27T14:03:32.892Z,2.57
2019-02-27T14:05:36.755Z,2.13
2019-02-27T14:07:40.656Z,2.20
2019-02-27T14:09:44.466Z,2.60
2019-02-27T14:11:48.352Z,2.33
2019-02-27T14:13:52.173Z,2.23
2019-02-27T14:15:58.028Z,2.50
2019-02-27T14:18:01.622Z,2.53
2019-02-27T14:20:11.262Z,2.73
2019-02-27T14:22:15.165Z,3.43
2019-02-27T14:24:20.652Z,2.43
2019-02-27T14:26:24.577Z,2.40
2019-02-27T14:28:28.427Z,2.60
2019-02-27T14:30:36.452Z,2.67
2019-02-27T14:32:40.107Z,2.60
2019-02-27T14:34:43.913Z,2.53
2019-02-27T14:36:49.064Z,2.73
2019-02-27T14:38:53.357Z,3.13
2019-02-27T14:40:57.890Z,3.00
2019-02-27T14:43:01.784Z,3.17
2019-02-27T14:45:08.667Z,3.23
2019-02-27T14:47:16.388Z,2.83
2019-02-27T14:49:20.989Z,3.63
2019-02-27T14:51:24.900Z,3.07
2019-02-27T14:53:30.429Z,3.57
2019-02-27T14:55:36.127Z,4.67
2019-02-27T14:57:40.097Z,5.90
2019-02-27T14:59:43.990Z,5.73
2019-02-27T15:01:49.255Z,6.20
2019-02-27T15:03:53.262Z,6.20
2019-02-27T15:05:56.794Z,6.23
2019-02-27T15:08:00.960Z,5.50
2019-02-27T15:10:08.039Z,6.80
2019-02-27T15:12:12.031Z,6.57
2019-02-27T15:14:15.849Z,6.90
2019-02-27T15:16:21.791Z,6.20
2019-02-27T15:18:25.407Z,6.10
2019-02-27T15:20:30.516Z,6.87
2019-02-27T15:22:34.323Z,7.10
2019-02-27T15:24:38.125Z,6.67
2019-02-27T15:26:45.209Z,6.63
2019-02-27T15:28:47.579Z,6.13
2019-02-27T15:30:51.111Z,6.47
2019-02-27T15:32:56.173Z,6.20
2019-02-27T15:35:00.017Z,7.30
2019-02-27T15:37:04.140Z,6.77
2019-02-27T15:39:08.758Z,6.90
2019-02-27T15:41:12.556Z,7.57
2019-02-27T15:43:17.485Z,7.20
2019-02-27T15:45:23.282Z,7.23
2019-02-27T15:47:30.731Z,6.43
2019-02-27T15:49:32.789Z,6.60
2019-02-27T15:51:38.315Z,7.20
2019-02-27T15:53:42.229Z,7.50
2019-02-27T15:55:46.137Z,6.57
2019-02-27T15:57:53.824Z,7.03
2019-02-27T15:59:55.691Z,7.30
2019-02-27T16:02:02.355Z,7.87
2019-02-27T16:04:04.530Z,9.03
2019-02-27T16:06:08.339Z,7.37
2019-02-27T16:08:11.868Z,6.87
2019-02-27T16:10:24.634Z,6.97
2019-02-27T16:12:28.143Z,7.00
2019-02-27T16:14:31.690Z,7.63
2019-02-27T16:16:35.534Z,6.90
2019-02-27T16:18:39.317Z,6.77
2019-02-27T16:20:42.880Z,7.73
2019-02-27T16:22:49.702Z,6.37
2019-02-27T16:24:53.218Z,6.30
2019-02-27T16:26:57.972Z,6.20
2019-02-27T16:29:02.653Z,6.93
2019-02-27T16:31:07.147Z,6.17
2019-02-27T16:33:10.697Z,7.33
2019-02-27T16:35:14.574Z,6.60
2019-02-27T16:37:22.267Z,6.07
2019-02-27T16:39:24.029Z,6.93
2019-02-27T16:41:28.970Z,6.90
2019-02-27T16:43:33.257Z,6.90
2019-02-27T16:45:38.101Z,7.37
2019-02-27T16:47:42.003Z,7.90
2019-02-27T16:49:47.225Z,7.10
2019-02-27T16:51:51.444Z,7.00
2019-02-27T16:53:55.253Z,6.70
2019-02-27T16:55:59.071Z,5.80
2019-02-27T16:58:02.604Z,7.20
2019-02-27T17:00:09.228Z,7.43
2019-02-27T17:02:13.127Z,7.23
2019-02-27T17:04:16.913Z,6.10
2019-02-27T17:06:25.585Z,7.23
2019-02-27T17:08:36.279Z,7.37
2019-02-27T17:10:51.691Z,6.40
2019-02-27T17:12:57.704Z,7.30
2019-02-27T17:15:02.445Z,7.47
2019-02-27T17:17:12.299Z,6.83
2019-02-27T17:19:20.199Z,6.40
2019-02-27T17:21:27.925Z,7.30
2019-02-27T17:23:34.149Z,7.17
2019-02-27T17:25:37.961Z,6.73
2019-02-27T17:27:41.867Z,7.43
2019-02-27T17:29:45.380Z,6.20
2019-02-27T17:31:52.576Z,6.53
2019-02-27T17:33:54.822Z,6.73
2019-02-27T17:35:59.258Z,6.23
2019-02-27T17:38:03.491Z,5.62
2019-02-27T17:40:12.173Z,5.15
2019-02-27T17:42:18.559Z,4.90
2019-02-27T17:44:21.613Z,4.97
2019-02-27T17:46:25.729Z,4.83
2019-02-27T17:48:29.838Z,4.92
2019-02-27T17:50:34.049Z,3.52
2019-02-27T17:52:38.273Z,3.85
2019-02-27T17:54:42.164Z,3.97
2019-02-27T17:56:47.174Z,3.97
2019-02-27T17:58:51.610Z,3.58
2019-02-27T18:00:57.463Z,3.27
2019-02-27T18:03:05.080Z,3.15
2019-02-27T18:05:09.075Z,3.10
2019-02-27T18:07:14.480Z,3.27
2019-02-27T18:09:18.627Z,2.90
2019-02-27T18:11:22.830Z,3.83
2019-02-27T18:13:26.943Z,2.98
2019-02-27T18:15:31.045Z,3.05
2019-02-27T18:17:35.716Z,3.50
2019-02-27T18:19:39.553Z,3.00
2019-02-27T18:21:43.788Z,2.90
2019-02-27T18:23:48.045Z,2.60
2019-02-27T18:25:52.205Z,2.75
2019-02-27T18:27:59.540Z,3.17
2019-02-27T18:30:02.173Z,3.40
2019-02-27T18:32:06.707Z,3.62
2019-02-27T18:34:10.908Z,3.33
2019-02-27T18:36:15.104Z,3.30
2019-02-27T18:38:18.916Z,3.20
2019-02-27T18:40:23.235Z,3.00
2019-02-27T18:42:27.353Z,2.55
2019-02-27T18:44:32.267Z,2.80
2019-02-27T18:46:36.772Z,3.10
2019-02-27T18:48:43.526Z,2.95
2019-02-27T18:50:46.867Z,2.95
2019-02-27T18:52:51.068Z,3.10
2019-02-27T18:54:55.635Z,2.90
2019-02-27T18:56:59.511Z,2.90
2019-02-27T18:59:03.610Z,2.70
2019-02-27T19:01:09.960Z,3.27
2019-02-27T19:03:14.168Z,3.00
2019-02-27T19:05:18.398Z,2.65
2019-02-27T19:07:22.204Z,2.85
2019-02-27T19:09:26.396Z,2.30
2019-02-27T19:11:30.628Z,2.10
2019-02-27T19:13:34.731Z,2.42
2019-02-27T19:15:38.938Z,2.25
2019-02-27T19:17:42.838Z,2.65
2019-02-27T19:19:48.912Z,3.02
2019-02-27T19:21:52.589Z,2.47
2019-02-27T19:23:56.713Z,2.80
2019-02-27T19:26:00.532Z,2.35
2019-02-27T19:28:08.868Z,2.37
2019-02-27T19:30:15.788Z,2.90
2019-02-27T19:32:23.194Z,2.40
2019-02-27T19:34:25.763Z,2.40
2019-02-27T19:36:30.685Z,2.98
2019-02-27T19:38:35.734Z,2.47
2019-02-27T19:40:41.566Z,2.90
2019-02-27T19:42:53.994Z,2.98
2019-02-27T19:45:03.746Z,2.77
2019-02-27T19:47:03.358Z,2.60
2019-02-27T19:49:07.538Z,3.17
2019-02-27T19:51:13.095Z,2.40
2019-02-27T19:53:16.908Z,2.72
2019-02-27T19:55:26.212Z,2.70
2019-02-27T19:57:26.637Z,2.42
2019-02-27T19:59:30.461Z,2.15
2019-02-27T20:01:34.654Z,2.37
2019-02-27T20:03:38.776Z,2.25
2019-02-27T20:05:43.002Z,2.30
2019-02-27T20:08:02.385Z,2.10
2019-02-27T20:10:10.212Z,2.00
2019-02-27T20:12:18.671Z,1.95
2019-02-27T20:14:27.897Z,2.25
2019-02-27T20:16:33.406Z,2.22
2019-02-27T20:18:43.654Z,1.72
2019-02-27T20:20:51.540Z,2.08
2019-02-27T20:22:56.519Z,1.70
2019-02-27T20:25:09.298Z,2.15
2019-02-27T20:27:16.105Z,2.40
2019-02-27T20:29:26.659Z,2.40
2019-02-27T20:31:33.736Z,2.22
2019-02-27T20:33:47.498Z,2.50
2019-02-27T20:36:00.765Z,2.77
2019-02-27T20:38:15.364Z,2.72
2019-02-27T20:40:21.866Z,2.90
2019-02-27T20:42:26.163Z,2.75
2019-02-27T20:44:30.048Z,3.03
2019-02-27T20:46:34.268Z,2.80
2019-02-27T20:48:39.671Z,2.95
2019-02-27T20:50:50.079Z,2.85
2019-02-27T20:52:53.883Z,3.00
2019-02-27T20:54:58.827Z,3.35
2019-02-27T20:57:04.122Z,3.45
2019-02-27T20:59:08.240Z,2.90
2019-02-27T21:01:13.879Z,3.60
2019-02-27T21:03:18.098Z,3.47
2019-02-27T21:05:24.026Z,3.87
2019-02-27T21:07:27.830Z,3.05
2019-02-27T21:09:31.958Z,3.20
2019-02-27T21:11:36.197Z,3.30
2019-02-27T21:13:40.287Z,2.80
2019-02-27T21:15:46.539Z,3.30
2019-02-27T21:17:50.678Z,3.02
2019-02-27T21:19:54.770Z,3.02
2019-02-27T21:21:58.599Z,2.77
2019-02-27T21:24:05.514Z,2.98
2019-02-27T21:26:08.950Z,3.42
2019-02-27T21:28:20.719Z,3.90
2019-02-27T21:30:19.928Z,3.70
2019-02-27T21:32:23.841Z,3.62
2019-02-27T21:34:27.943Z,3.92
2019-02-27T21:36:36.273Z,3.60
2019-02-27T21:38:38.020Z,4.00
2019-02-27T21:40:42.118Z,4.00
2019-02-27T21:42:46.205Z,3.75
2019-02-27T21:44:50.440Z,3.92
2019-02-27T21:46:54.247Z,3.95
2019-02-27T21:48:59.312Z,4.08
2019-02-27T21:51:03.496Z,3.33
2019-02-27T21:53:07.701Z,4.12
2019-02-27T21:55:13.078Z,4.00
2019-02-27T21:57:17.978Z,4.05
2019-02-27T21:59:22.058Z,4.00
2019-02-27T22:01:25.871Z,3.98
2019-02-27T22:03:30.195Z,3.50
2019-02-27T22:05:42.531Z,3.35
2019-02-27T22:07:39.916Z,3.58
2019-02-27T22:09:44.791Z,4.05
2019-02-27T22:11:49.710Z,4.10
2019-02-27T22:13:53.821Z,3.83
2019-02-27T22:15:57.646Z,4.25
2019-02-27T22:18:01.436Z,4.90
2019-02-27T22:20:08.975Z,4.00
2019-02-27T22:22:15.827Z,4.40
2019-02-27T22:24:21.026Z,3.83
2019-02-27T22:26:25.853Z,3.40
2019-02-27T22:28:29.969Z,3.72
2019-02-27T22:30:34.091Z,3.70
2019-02-27T22:32:38.281Z,4.00
2019-02-27T22:34:43.729Z,3.80
2019-02-27T22:36:47.839Z,3.55
2019-02-27T22:38:51.949Z,4.00
2019-02-27T22:40:55.773Z,4.87
2019-02-27T22:42:59.971Z,5.20
2019-02-27T22:45:04.920Z,5.37
2019-02-27T22:47:08.819Z,5.40
2019-02-27T22:49:12.905Z,5.12
2019-02-27T22:51:17.021Z,6.00
2019-02-27T22:53:20.921Z,5.28
2019-02-27T22:55:25.037Z,5.35
2019-02-27T22:57:29.259Z,4.87
2019-02-27T22:59:34.055Z,5.42
2019-02-27T23:01:42.826Z,5.62
2019-02-27T23:03:51.103Z,5.72
2019-02-27T23:05:54.927Z,6.05
2019-02-27T23:07:59.029Z,6.45
2019-02-27T23:10:03.443Z,5.87
2019-02-27T23:12:08.536Z,5.97
2019-02-27T23:14:14.752Z,7.20
2019-02-27T23:16:20.508Z,6.75
2019-02-27T23:18:24.728Z,6.87
2019-02-27T23:20:28.526Z,7.28
2019-02-27T23:22:32.690Z,6.97
2019-02-27T23:24:36.911Z,7.53
2019-02-27T23:26:40.825Z,7.37
2019-02-27T23:28:44.926Z,8.43
2019-02-27T23:30:49.142Z,7.50
2019-02-27T23:32:53.239Z,7.58
2019-02-27T23:34:57.072Z,7.72
2019-02-27T23:37:01.270Z,7.58
2019-02-27T23:39:08.745Z,8.40
2019-02-27T23:41:12.970Z,8.40
2019-02-27T23:43:17.191Z,8.70
2019-02-27T23:45:21.395Z,9.68
2019-02-27T23:47:28.721Z,8.33
2019-02-27T23:49:31.453Z,9.30
2019-02-27T23:51:35.300Z,8.88
2019-02-27T23:53:40.859Z,8.53
2019-02-27T23:55:45.514Z,9.88
2019-02-27T23:57:49.421Z,9.73
2019-02-27T23:59:53.541Z,10.80
